createdAt,value
2022-11-18T11:07:41.915Z,7.26
2022-11-18T11:08:52.231Z,7.39
2022-11-18T11:10:08.435Z,7.54
2022-11-18T11:11:25.884Z,7.49
2022-11-18T11:12:31.122Z,7.51
2022-11-18T11:13:37.966Z,7.38
2022-11-18T11:14:51.095Z,7.29
2022-11-18T11:15:55.182Z,7.20
2022-11-18T11:17:02.571Z,7.17
2022-11-18T11:18:43.308Z,7.07
2022-11-18T11:20:10.471Z,7.14
2022-11-18T11:21:15.484Z,7.19
2022-11-18T11:22:17.657Z,7.08
2022-11-18T11:23:23.392Z,7.06
2022-11-18T12:27:37.041Z,8.15
2022-11-18T12:28:43.233Z,8.22
2022-11-18T12:29:44.527Z,8.49
2022-11-18T12:30:45.931Z,8.67
2022-11-18T12:31:51.806Z,8.68
2022-11-18T12:32:56.867Z,8.43
2022-11-18T12:34:04.932Z,8.23
2022-11-18T12:35:27.174Z,7.98
2022-11-18T12:36:36.648Z,7.99
2022-11-18T12:37:53.295Z,7.88
2022-11-18T12:38:55.757Z,7.97
2022-11-18T12:39:58.417Z,8.02
2022-11-18T12:41:19.844Z,7.84
2022-11-18T12:43:13.477Z,7.73
2022-11-18T12:44:23.732Z,7.70
2022-11-18T12:45:40.284Z,7.72
2022-11-18T12:46:49.322Z,7.64
2022-11-18T12:47:53.452Z,7.69
2022-11-18T12:48:54.995Z,7.67
2022-11-18T12:49:59.563Z,7.88
2022-11-18T12:51:16.062Z,8.71
2022-11-18T12:52:29.814Z,9.55
2022-11-18T12:53:37.248Z,9.84
2022-11-18T12:54:45.634Z,9.48
2022-11-18T12:55:47.077Z,9.55
2022-11-18T12:56:50.295Z,9.31
2022-11-18T12:57:52.141Z,8.82
2022-11-18T12:58:55.838Z,8.76
2022-11-18T12:59:58.199Z,8.68
2022-11-18T13:01:12.545Z,8.62
2022-11-18T13:02:21.235Z,8.31
2022-11-18T13:03:28.774Z,7.96
2022-11-18T13:04:30.288Z,7.94
2022-11-18T13:05:34.508Z,7.88
2022-11-18T13:06:38.309Z,7.66
2022-11-18T13:08:09.612Z,7.61
2022-11-18T13:09:20.625Z,7.51
2022-11-18T13:10:27.466Z,7.66
2022-11-18T13:11:50.964Z,7.55
2022-11-18T13:12:53.946Z,7.56
2022-11-18T13:14:15.876Z,8.09
2022-11-18T13:15:36.985Z,8.43
2022-11-18T13:16:57.973Z,8.26
2022-11-18T13:18:11.528Z,9.17
2022-11-18T13:19:25.973Z,9.07
2022-11-18T13:20:35.545Z,9.64
2022-11-18T13:21:55.711Z,9.46
2022-11-18T13:23:21.986Z,9.62
2022-11-18T13:24:23.971Z,9.29
2022-11-18T13:25:26.369Z,9.39
2022-11-18T13:26:33.553Z,9.34
2022-11-18T13:28:11.797Z,9.06
2022-11-18T13:29:22.571Z,8.86
2022-11-18T13:30:24.396Z,9.02
2022-11-18T13:31:32.134Z,8.88
2022-11-18T13:32:33.897Z,8.81
2022-11-18T13:33:38.495Z,9.03
2022-11-18T13:34:53.280Z,9.06
2022-11-18T13:35:54.776Z,8.96
2022-11-18T13:36:59.659Z,9.68
2022-11-18T13:38:02.492Z,10.21
2022-11-18T13:39:06.062Z,10.33
2022-11-18T13:40:23.027Z,10.08
2022-11-18T13:41:32.455Z,10.17
2022-11-18T13:42:33.872Z,10.30
2022-11-18T13:43:35.622Z,10.11
2022-11-18T13:44:38.238Z,9.93
2022-11-18T13:45:44.733Z,9.99
2022-11-18T13:46:51.365Z,9.97
2022-11-18T13:47:59.422Z,9.98
2022-11-18T13:49:00.919Z,10.19
2022-11-18T13:50:05.022Z,10.67
2022-11-18T13:51:06.741Z,10.75
2022-11-18T13:52:16.883Z,10.67
2022-11-18T13:53:19.313Z,10.76
2022-11-18T13:54:26.792Z,11.00
2022-11-18T13:55:36.228Z,10.77
2022-11-18T13:56:40.206Z,9.95
2022-11-18T13:57:45.855Z,9.69
2022-11-18T14:00:25.419Z,9.53
2022-11-18T14:01:32.387Z,9.55
2022-11-18T14:02:49.896Z,9.29
2022-11-18T14:03:52.724Z,9.09
2022-11-18T14:04:57.655Z,8.61
2022-11-18T14:05:59.356Z,9.02
2022-11-18T14:07:36.098Z,9.94
2022-11-18T14:08:39.160Z,9.64
2022-11-18T14:10:01.055Z,9.50
2022-11-18T14:11:03.816Z,9.40
2022-11-18T14:12:28.884Z,9.32
2022-11-18T14:13:35.359Z,9.31
2022-11-18T14:14:38.967Z,9.15
2022-11-18T14:15:43.748Z,9.44
2022-11-18T14:16:45.715Z,9.27
2022-11-18T14:18:02.474Z,9.56
2022-11-18T14:19:05.151Z,9.78
2022-11-18T14:20:16.931Z,10.07
2022-11-18T14:21:32.647Z,9.85
2022-11-18T14:22:34.314Z,10.12
2022-11-18T14:23:37.151Z,10.41
2022-11-18T14:24:38.522Z,10.39
2022-11-18T14:25:44.931Z,10.36
2022-11-18T14:26:46.383Z,10.43
2022-11-18T14:27:50.312Z,10.45
2022-11-18T14:28:57.209Z,10.70
2022-11-18T14:29:58.986Z,10.50
2022-11-18T14:31:03.834Z,10.69
2022-11-18T14:32:11.316Z,10.66
2022-11-18T14:33:12.756Z,10.42
2022-11-18T14:34:17.332Z,9.95
2022-11-18T14:35:18.709Z,9.70
2022-11-18T14:36:20.285Z,9.49
2022-11-18T14:37:24.465Z,9.23
2022-11-18T14:38:52.041Z,8.99
2022-11-18T14:39:57.658Z,8.72
2022-11-18T14:41:01.267Z,8.53
2022-11-18T14:42:02.694Z,8.41
2022-11-18T14:43:08.836Z,8.37
2022-11-18T14:44:10.231Z,8.14
2022-11-18T14:45:11.907Z,8.33
2022-11-18T14:46:19.454Z,8.92
2022-11-18T14:47:29.367Z,9.54
2022-11-18T14:48:36.875Z,9.79
2022-11-18T14:49:38.253Z,9.67
2022-11-18T14:50:39.639Z,9.90
2022-11-18T14:51:41.050Z,10.03
2022-11-18T14:52:42.385Z,10.29
2022-11-18T14:53:47.749Z,10.10
2022-11-18T14:54:49.102Z,10.17
2022-11-18T14:55:56.469Z,10.07
2022-11-18T14:57:01.416Z,10.32
2022-11-18T14:58:02.761Z,10.26
2022-11-18T14:59:07.732Z,10.29
2022-11-18T15:00:14.187Z,10.11
2022-11-18T15:01:15.756Z,9.77
2022-11-18T15:02:17.903Z,9.18
2022-11-18T15:03:19.432Z,8.82
2022-11-18T15:04:22.301Z,8.66
2022-11-18T15:05:23.834Z,8.49
2022-11-18T15:06:25.368Z,8.21
2022-11-18T15:07:26.912Z,8.13
2022-11-18T15:08:28.466Z,7.94
2022-11-18T15:09:29.909Z,7.98
2022-11-18T15:10:31.385Z,7.95
2022-11-18T15:11:32.787Z,7.87
2022-11-18T15:12:34.255Z,7.73
2022-11-18T15:13:35.698Z,7.71
2022-11-18T15:14:37.033Z,7.64
2022-11-18T15:15:42.826Z,7.66
2022-11-18T15:16:44.211Z,7.64
2022-11-18T15:17:48.441Z,7.54
2022-11-18T15:18:55.586Z,7.53
2022-11-18T15:19:57.080Z,7.48
2022-11-18T15:20:58.804Z,7.48
2022-11-18T15:22:00.200Z,7.44
2022-11-18T15:23:01.556Z,7.39
2022-11-18T15:24:03.485Z,7.42
2022-11-18T15:25:05.712Z,7.37
2022-11-18T15:26:38.222Z,7.29
2022-11-18T15:27:39.742Z,7.11
2022-11-18T15:28:41.196Z,7.17
2022-11-18T15:29:42.624Z,7.21
2022-11-18T15:30:44.052Z,7.21
2022-11-18T15:31:49.885Z,7.08
2022-11-18T15:32:51.228Z,7.10
2022-11-18T15:33:52.742Z,7.03
2022-11-18T15:34:54.237Z,7.00
2022-11-18T15:35:55.617Z,6.94
2022-11-18T15:36:59.856Z,6.97
2022-11-18T15:38:01.501Z,6.92
2022-11-18T15:39:03.263Z,6.88
2022-11-18T15:40:04.875Z,6.82
2022-11-18T15:41:07.194Z,6.75
2022-11-18T15:42:11.671Z,6.59
2022-11-18T15:43:13.061Z,6.63
2022-11-18T15:44:14.536Z,6.65
2022-11-18T15:45:16.031Z,6.60
2022-11-18T15:46:19.351Z,6.60
2022-11-18T15:47:20.821Z,6.49
2022-11-18T15:48:22.148Z,6.52
2022-11-18T15:49:23.547Z,6.40
2022-11-18T15:50:25.109Z,6.42
2022-11-18T15:51:28.656Z,6.37
2022-11-18T15:52:30.057Z,6.36
2022-11-18T15:53:31.420Z,6.31
2022-11-18T15:54:32.754Z,6.27
2022-11-18T15:55:38.313Z,6.08
2022-11-18T15:56:41.494Z,6.11
2022-11-18T15:57:42.823Z,6.13
2022-11-18T15:58:59.730Z,6.15
2022-11-18T16:00:01.537Z,6.08
2022-11-18T16:01:03.142Z,6.09
2022-11-18T16:02:08.041Z,6.04
2022-11-18T16:03:09.485Z,5.93
2022-11-18T16:04:12.955Z,6.02
2022-11-18T16:05:14.310Z,5.88
2022-11-18T16:06:15.759Z,5.92
2022-11-18T16:07:20.792Z,5.82
2022-11-18T16:08:22.177Z,5.87
2022-11-18T16:09:23.625Z,5.84
2022-11-18T16:10:43.612Z,5.82
2022-11-18T16:12:03.459Z,5.71
2022-11-18T16:13:04.942Z,5.74
2022-11-18T16:14:09.164Z,5.71
2022-11-18T16:15:29.065Z,5.69
2022-11-18T16:16:31.338Z,5.69
2022-11-18T16:17:32.709Z,5.71
2022-11-18T16:18:40.608Z,5.44
2022-11-18T16:19:43.456Z,5.61
2022-11-18T16:20:44.930Z,5.55
2022-11-18T16:21:48.805Z,5.70
2022-11-18T16:22:51.909Z,5.75
